createdAt,value
2019-03-05T00:02:26.352Z,82.84
2019-03-05T00:05:00.482Z,82.98
2019-03-05T00:07:33.164Z,83.16
2019-03-05T00:10:07.017Z,83.20
2019-03-05T00:12:37.401Z,83.34
2019-03-05T00:15:12.944Z,83.40
2019-03-05T00:17:43.672Z,83.40
2019-03-05T00:20:15.124Z,83.40
2019-03-05T00:22:45.646Z,83.46
2019-03-05T00:25:18.557Z,83.65
2019-03-05T00:28:04.962Z,83.67
2019-03-05T00:30:44.989Z,83.48
2019-03-05T00:33:34.284Z,83.55
2019-03-05T00:36:14.223Z,83.41
2019-03-05T00:38:51.588Z,83.59
2019-03-05T00:41:37.369Z,83.55
2019-03-05T00:44:27.865Z,83.58
2019-03-05T00:47:20.312Z,83.75
2019-03-05T00:50:19.914Z,83.59
2019-03-05T00:53:16.048Z,83.74
2019-03-05T00:56:05.147Z,83.69
2019-03-05T00:58:41.064Z,83.65
2019-03-05T01:01:19.786Z,83.59
2019-03-05T01:04:14.509Z,83.59
2019-03-05T01:06:45.199Z,83.58
2019-03-05T01:09:17.476Z,83.58
2019-03-05T01:11:50.010Z,83.54
2019-03-05T01:14:21.819Z,83.42
2019-03-05T01:16:55.688Z,83.14
2019-03-05T01:19:26.034Z,83.22
2019-03-05T01:21:59.228Z,83.26
2019-03-05T01:24:29.959Z,83.11
2019-03-05T01:27:00.693Z,83.17
2019-03-05T01:29:31.525Z,83.18
2019-03-05T01:32:03.582Z,83.12
2019-03-05T01:34:35.957Z,83.03
2019-03-05T01:37:09.280Z,83.10
2019-03-05T01:39:44.805Z,82.95
2019-03-05T01:42:15.528Z,82.95
2019-03-05T01:44:47.183Z,82.95
2019-03-05T01:47:18.633Z,82.94
2019-03-05T01:49:50.550Z,82.91
2019-03-05T01:52:20.918Z,82.92
2019-03-05T01:54:52.064Z,82.95
2019-03-05T01:57:22.489Z,82.85
2019-03-05T01:59:53.731Z,82.91
2019-03-05T02:02:24.571Z,82.94
2019-03-05T02:04:56.134Z,82.86
2019-03-05T02:07:29.430Z,82.94
2019-03-05T02:10:00.665Z,82.87
2019-03-05T02:12:32.208Z,82.86
2019-03-05T02:15:02.560Z,82.94
2019-03-05T02:17:34.392Z,82.96
2019-03-05T02:20:08.296Z,82.83
2019-03-05T02:22:40.876Z,82.83
2019-03-05T02:25:14.575Z,82.72
2019-03-05T02:27:55.449Z,82.82
2019-03-05T02:30:46.390Z,82.68
2019-03-05T02:33:53.745Z,82.72
2019-03-05T02:36:49.050Z,82.64
2019-03-05T02:39:49.626Z,82.74
2019-03-05T02:42:36.298Z,82.52
2019-03-05T02:45:26.988Z,82.59
2019-03-05T02:48:06.634Z,82.61
2019-03-05T02:50:57.020Z,82.59
2019-03-05T02:53:53.555Z,82.59
2019-03-05T02:56:37.603Z,82.65
2019-03-05T02:59:07.115Z,82.49
2019-03-05T03:01:48.488Z,82.46
2019-03-05T03:04:36.217Z,82.59
2019-03-05T03:07:06.821Z,82.52
2019-03-05T03:09:46.005Z,82.28
2019-03-05T03:12:16.920Z,82.35
2019-03-05T03:14:48.270Z,82.24
2019-03-05T03:17:19.296Z,82.35
2019-03-05T03:19:49.641Z,82.38
2019-03-05T03:22:20.979Z,82.18
2019-03-05T03:24:51.294Z,82.19
2019-03-05T03:27:23.258Z,82.30
2019-03-05T03:29:53.780Z,82.28
2019-03-05T03:32:25.950Z,82.18
2019-03-05T03:34:56.178Z,82.21
2019-03-05T03:37:26.787Z,82.03
2019-03-05T03:40:00.017Z,82.22
2019-03-05T03:42:30.413Z,82.23
2019-03-05T03:45:00.822Z,82.21
2019-03-05T03:47:33.721Z,82.30
2019-03-05T03:50:05.377Z,82.27
2019-03-05T03:52:37.128Z,82.29
2019-03-05T03:55:14.826Z,82.04
2019-03-05T03:57:45.065Z,82.02
2019-03-05T04:00:23.564Z,82.00
2019-03-05T04:02:53.787Z,81.89
2019-03-05T04:05:24.550Z,81.87
2019-03-05T04:07:55.147Z,81.70
2019-03-05T04:10:26.493Z,81.77
2019-03-05T04:12:57.650Z,81.77
2019-03-05T04:15:28.270Z,81.75
2019-03-05T04:18:00.029Z,81.69
2019-03-05T04:20:32.901Z,81.85
2019-03-05T04:23:03.534Z,81.80
2019-03-05T04:25:34.985Z,81.68
2019-03-05T04:28:08.890Z,81.61
2019-03-05T04:30:41.858Z,81.67
2019-03-05T04:33:12.218Z,81.48
2019-03-05T04:35:44.262Z,81.46
2019-03-05T04:38:16.362Z,81.35
2019-03-05T04:40:47.552Z,81.27
2019-03-05T04:43:20.144Z,81.05
2019-03-05T04:45:52.311Z,81.01
2019-03-05T04:48:22.527Z,80.76
2019-03-05T04:51:14.052Z,80.72
2019-03-05T04:53:45.197Z,80.76
2019-03-05T04:56:15.823Z,80.64
2019-03-05T04:58:46.555Z,80.47
2019-03-05T05:01:17.286Z,80.49
2019-03-05T05:03:47.920Z,80.27
2019-03-05T05:06:20.172Z,80.44
2019-03-05T05:08:50.367Z,80.05
2019-03-05T05:11:21.040Z,80.09
2019-03-05T05:13:51.669Z,80.01
2019-03-05T05:16:22.831Z,80.00
2019-03-05T05:18:53.441Z,79.58
2019-03-05T05:21:24.890Z,79.48
2019-03-05T05:23:57.568Z,79.40
2019-03-05T05:26:28.141Z,79.29
2019-03-05T05:28:58.733Z,79.02
2019-03-05T05:31:31.299Z,78.86
2019-03-05T05:34:03.166Z,78.83
2019-03-05T05:36:35.343Z,78.83
2019-03-05T05:39:08.729Z,78.93
2019-03-05T05:41:39.349Z,78.47
2019-03-05T05:44:10.081Z,78.24
2019-03-05T05:46:40.714Z,78.40
2019-03-05T05:49:14.821Z,78.39
2019-03-05T05:51:45.021Z,78.09
2019-03-05T05:54:17.318Z,77.46
2019-03-05T05:56:47.947Z,77.50
2019-03-05T05:59:19.704Z,76.96
2019-03-05T06:01:50.329Z,76.62
2019-03-05T06:04:21.552Z,75.90
2019-03-05T06:06:53.228Z,75.56
2019-03-05T06:09:23.412Z,75.87
2019-03-05T06:11:56.188Z,75.69
2019-03-05T06:14:27.370Z,75.33
2019-03-05T06:16:59.021Z,75.70
2019-03-05T06:19:32.036Z,75.29
2019-03-05T06:22:04.062Z,75.28
2019-03-05T06:24:34.290Z,75.53
2019-03-05T06:27:05.739Z,75.04
2019-03-05T06:29:36.373Z,74.66
2019-03-05T06:32:07.409Z,74.85
2019-03-05T06:34:39.667Z,74.74
2019-03-05T06:37:11.437Z,74.72
2019-03-05T06:39:42.472Z,74.71
2019-03-05T06:42:14.540Z,74.36
2019-03-05T06:44:45.615Z,74.05
2019-03-05T06:47:16.933Z,73.76
2019-03-05T06:49:47.556Z,73.34
2019-03-05T06:52:18.290Z,73.60
2019-03-05T06:54:49.946Z,73.61
2019-03-05T06:57:20.269Z,73.06
2019-03-05T06:59:53.515Z,72.75
2019-03-05T07:02:24.606Z,71.77
2019-03-05T07:04:59.634Z,71.60
2019-03-05T07:07:32.318Z,71.17
2019-03-05T07:10:23.573Z,70.17
2019-03-05T07:12:56.824Z,70.01
2019-03-05T07:15:38.607Z,70.27
2019-03-05T07:18:19.166Z,70.06
2019-03-05T07:21:01.847Z,68.79
2019-03-05T07:23:47.481Z,67.25
2019-03-05T07:26:18.505Z,66.13
2019-03-05T07:28:49.849Z,66.08
2019-03-05T07:31:20.481Z,66.41
2019-03-05T07:33:51.211Z,66.94
2019-03-05T07:36:22.663Z,65.75
2019-03-05T07:38:52.844Z,65.73
2019-03-05T07:41:25.174Z,65.28
2019-03-05T07:43:55.793Z,64.29
2019-03-05T07:46:26.316Z,64.90
2019-03-05T07:49:00.627Z,64.95
2019-03-05T07:51:34.797Z,64.60
2019-03-05T07:54:07.332Z,64.56
2019-03-05T07:56:38.586Z,64.62
2019-03-05T07:59:10.491Z,64.13
2019-03-05T08:01:41.045Z,63.47
2019-03-05T08:04:13.224Z,63.67
2019-03-05T08:06:45.690Z,64.03
2019-03-05T08:09:32.606Z,64.27
2019-03-05T08:12:22.583Z,63.96
2019-03-05T08:15:21.983Z,64.11
2019-03-05T08:17:52.884Z,63.94
2019-03-05T08:20:23.557Z,63.25
2019-03-05T08:22:54.081Z,64.12
2019-03-05T08:25:24.628Z,63.14
2019-03-05T08:27:56.568Z,61.84
2019-03-05T08:30:27.000Z,62.48
2019-03-05T08:32:58.561Z,62.35
2019-03-05T08:35:29.889Z,61.28
2019-03-05T08:38:00.029Z,60.93
2019-03-05T08:40:33.506Z,59.51
2019-03-05T08:43:04.092Z,59.14
2019-03-05T08:45:34.671Z,58.79
2019-03-05T08:48:05.190Z,59.26
2019-03-05T08:50:37.560Z,58.15
2019-03-05T08:53:07.801Z,58.35
2019-03-05T08:55:38.519Z,58.08
2019-03-05T08:58:10.582Z,57.33
2019-03-05T09:00:41.324Z,57.14
2019-03-05T09:03:11.947Z,55.77
2019-03-05T09:05:45.659Z,54.59
2019-03-05T09:08:16.892Z,54.98
2019-03-05T09:10:48.183Z,54.53
2019-03-05T09:13:19.689Z,54.89
2019-03-05T09:15:51.648Z,54.69
2019-03-05T09:18:22.179Z,55.02
2019-03-05T09:20:55.763Z,55.83
2019-03-05T09:23:26.616Z,54.50
2019-03-05T09:25:57.811Z,54.38
2019-03-05T09:28:28.381Z,52.11
2019-03-05T09:30:59.217Z,52.67
2019-03-05T09:33:30.052Z,50.82
2019-03-05T09:36:00.888Z,52.67
2019-03-05T09:38:32.218Z,49.56
2019-03-05T09:41:04.712Z,50.68
2019-03-05T09:43:36.751Z,50.81
2019-03-05T09:49:20.516Z,51.81
2019-03-05T09:51:51.395Z,52.24
2019-03-05T09:54:21.984Z,52.79
2019-03-05T09:56:53.632Z,53.53
2019-03-05T09:59:24.541Z,53.95
2019-03-05T10:01:56.835Z,53.12
2019-03-05T10:04:27.563Z,50.49
2019-03-05T10:06:58.466Z,49.25
2019-03-05T10:09:29.883Z,47.88
2019-03-05T10:12:01.288Z,46.39
2019-03-05T10:14:34.077Z,44.45
2019-03-05T10:17:05.522Z,41.97
2019-03-05T10:19:38.457Z,39.98
2019-03-05T10:22:08.874Z,40.52
2019-03-05T10:24:43.396Z,44.55
2019-03-05T10:27:14.252Z,45.56
2019-03-05T10:29:46.195Z,44.90
2019-03-05T10:32:17.573Z,43.93
2019-03-05T10:34:53.584Z,45.40
2019-03-05T10:37:24.091Z,45.49
2019-03-05T10:39:55.174Z,42.75
2019-03-05T10:42:26.323Z,43.58
2019-03-05T10:44:57.473Z,42.88
2019-03-05T10:47:28.996Z,41.12
2019-03-05T10:50:00.531Z,42.39
2019-03-05T10:52:31.718Z,43.75
2019-03-05T10:55:04.664Z,41.84
2019-03-05T10:57:37.326Z,40.70
2019-03-05T11:00:11.695Z,39.60
2019-03-05T11:02:43.422Z,38.12
2019-03-05T11:05:17.406Z,40.95
2019-03-05T11:07:49.980Z,40.86
2019-03-05T11:10:23.394Z,42.83
2019-03-05T11:12:55.501Z,43.00
2019-03-05T11:15:32.891Z,43.30
2019-03-05T11:18:06.251Z,43.58
2019-03-05T11:20:38.027Z,43.78
2019-03-05T11:23:11.831Z,44.50
2019-03-05T11:25:43.371Z,44.78
2019-03-05T11:28:15.592Z,45.49
2019-03-05T11:30:46.969Z,46.31
2019-03-05T11:33:18.467Z,46.67
2019-03-05T11:35:51.462Z,46.10
2019-03-05T11:38:23.652Z,45.82
2019-03-05T11:40:55.309Z,45.40
2019-03-05T11:43:26.821Z,44.99
2019-03-05T11:45:59.378Z,44.83
2019-03-05T11:48:31.159Z,45.04
2019-03-05T11:51:02.822Z,44.67
2019-03-05T11:53:35.510Z,43.15
2019-03-05T11:56:06.644Z,41.04
2019-03-05T11:58:39.711Z,42.07
2019-03-05T12:01:14.023Z,42.65
2019-03-05T12:03:45.223Z,43.70
2019-03-05T12:06:17.233Z,43.78
2019-03-05T12:08:48.380Z,44.17
2019-03-05T12:11:20.233Z,44.43
2019-03-05T12:13:54.483Z,42.94
2019-03-05T12:16:26.310Z,39.59
2019-03-05T12:18:58.188Z,39.10
2019-03-05T12:21:30.443Z,37.94
2019-03-05T12:24:03.432Z,37.18
2019-03-05T12:26:34.708Z,37.92
2019-03-05T12:29:07.299Z,39.87
2019-03-05T12:31:38.610Z,41.87
2019-03-05T12:34:09.362Z,42.05
2019-03-05T12:36:41.123Z,42.79
2019-03-05T12:39:11.651Z,43.32
2019-03-05T12:41:43.405Z,43.99
2019-03-05T12:44:14.578Z,44.99
2019-03-05T12:46:46.116Z,44.97
2019-03-05T12:49:17.226Z,45.61
2019-03-05T12:51:48.794Z,45.94
2019-03-05T12:54:19.535Z,46.31
2019-03-05T12:56:50.696Z,46.42
2019-03-05T12:59:22.118Z,46.52
2019-03-05T13:01:52.746Z,46.10
2019-03-05T13:04:24.195Z,46.36
2019-03-05T13:06:56.482Z,46.42
2019-03-05T13:09:27.916Z,45.09
2019-03-05T13:11:59.375Z,39.74
2019-03-05T13:14:30.311Z,39.22
2019-03-05T13:17:01.344Z,37.69
2019-03-05T13:19:31.871Z,38.03
2019-03-05T13:22:04.872Z,37.97
2019-03-05T13:24:36.716Z,38.23
2019-03-05T13:27:07.340Z,42.11
2019-03-05T13:29:39.104Z,44.88
2019-03-05T13:32:11.267Z,46.67
2019-03-05T13:34:42.550Z,47.26
2019-03-05T13:37:15.207Z,46.65
2019-03-05T13:39:46.535Z,47.45
2019-03-05T13:42:17.178Z,48.40
2019-03-05T13:44:48.820Z,48.90
2019-03-05T13:47:19.353Z,49.22
2019-03-05T13:50:04.488Z,49.50
2019-03-05T13:52:39.918Z,49.49
2019-03-05T13:55:34.694Z,50.05
2019-03-05T13:58:39.044Z,49.64
2019-03-05T14:01:09.808Z,49.35
2019-03-05T14:03:46.863Z,48.44
2019-03-05T14:06:26.120Z,46.24
2019-03-05T14:09:14.591Z,45.25
2019-03-05T14:11:46.437Z,44.37
2019-03-05T14:14:22.197Z,46.39
2019-03-05T14:16:54.169Z,48.63
2019-03-05T14:19:24.994Z,50.38
2019-03-05T14:21:55.830Z,51.20
2019-03-05T14:24:26.479Z,51.62
2019-03-05T14:26:57.301Z,52.05
2019-03-05T14:29:29.364Z,52.29
2019-03-05T14:31:59.898Z,52.68
2019-03-05T14:34:30.919Z,52.94
2019-03-05T14:37:01.575Z,52.88
2019-03-05T14:39:33.843Z,53.09
2019-03-05T14:42:06.909Z,53.12
2019-03-05T14:44:40.148Z,53.27
2019-03-05T14:47:10.937Z,53.77
2019-03-05T14:49:43.324Z,53.84
2019-03-05T14:52:13.839Z,54.01
2019-03-05T14:54:45.571Z,53.56
2019-03-05T14:57:16.371Z,53.83
2019-03-05T14:59:48.844Z,53.92
2019-03-05T15:02:19.424Z,53.46
2019-03-05T15:04:50.167Z,53.44
2019-03-05T15:07:21.393Z,53.74
2019-03-05T15:09:55.000Z,53.42
2019-03-05T15:12:25.928Z,53.68
2019-03-05T15:14:57.499Z,53.62
2019-03-05T15:17:27.901Z,53.68
2019-03-05T15:20:00.704Z,53.79
2019-03-05T15:22:31.057Z,53.78
2019-03-05T15:25:04.400Z,53.85
2019-03-05T15:27:35.268Z,54.07
2019-03-05T15:30:20.955Z,53.89
2019-03-05T15:32:51.876Z,54.01
2019-03-05T15:35:22.694Z,54.30
2019-03-05T15:37:53.441Z,54.46
2019-03-05T15:40:24.300Z,54.57
2019-03-05T15:42:55.762Z,54.85
2019-03-05T15:45:26.773Z,54.76
2019-03-05T15:47:59.349Z,54.82
2019-03-05T15:50:30.627Z,54.91
2019-03-05T15:53:01.132Z,55.07
2019-03-05T15:55:33.340Z,54.79
2019-03-05T15:58:04.344Z,54.90
2019-03-05T16:00:35.954Z,54.93
2019-03-05T16:03:07.323Z,55.08
2019-03-05T16:05:39.888Z,54.84
2019-03-05T16:08:10.637Z,55.07
2019-03-05T16:10:41.246Z,55.12
2019-03-05T16:13:15.273Z,55.13
2019-03-05T16:15:45.537Z,55.24
2019-03-05T16:18:17.130Z,55.25
2019-03-05T16:20:49.082Z,55.76
2019-03-05T16:23:20.335Z,55.62
2019-03-05T16:25:52.221Z,55.95
2019-03-05T16:28:23.053Z,56.13
2019-03-05T16:31:01.788Z,56.48
2019-03-05T16:33:40.468Z,56.72
2019-03-05T16:36:13.206Z,57.10
2019-03-05T16:39:03.645Z,57.00
2019-03-05T16:41:36.316Z,57.28
2019-03-05T16:44:09.508Z,57.14
2019-03-05T16:46:43.101Z,57.37
2019-03-05T16:49:15.950Z,58.32
2019-03-05T16:51:50.992Z,59.14
2019-03-05T16:54:23.043Z,58.98
2019-03-05T16:56:55.992Z,59.55
2019-03-05T16:59:44.518Z,60.25
2019-03-05T17:02:33.590Z,61.00
2019-03-05T17:05:23.697Z,61.52
2019-03-05T17:08:14.604Z,62.21
2019-03-05T17:10:50.117Z,62.50
2019-03-05T17:13:20.718Z,62.73
2019-03-05T17:15:51.389Z,62.93
2019-03-05T17:18:21.785Z,63.28
2019-03-05T17:20:52.256Z,63.01
2019-03-05T17:23:24.321Z,63.09
2019-03-05T17:25:57.784Z,63.47
2019-03-05T17:28:28.461Z,63.69
2019-03-05T17:30:58.720Z,63.98
2019-03-05T17:33:29.396Z,63.88
2019-03-05T17:36:00.117Z,64.13
2019-03-05T17:38:30.734Z,64.05
2019-03-05T17:41:01.773Z,64.21
2019-03-05T17:43:32.399Z,64.48
2019-03-05T17:46:02.820Z,64.48
2019-03-05T17:48:33.373Z,64.56
2019-03-05T17:51:03.737Z,64.60
2019-03-05T17:53:34.425Z,64.74
2019-03-05T17:56:05.044Z,64.71
2019-03-05T17:58:35.596Z,64.89
2019-03-05T18:01:07.054Z,64.92
2019-03-05T18:03:38.162Z,65.08
2019-03-05T18:06:08.905Z,65.09
2019-03-05T18:08:39.356Z,65.24
2019-03-05T18:11:10.458Z,65.11
2019-03-05T18:13:40.613Z,65.32
2019-03-05T18:16:12.642Z,65.50
2019-03-05T18:18:43.067Z,65.49
2019-03-05T18:21:14.008Z,65.96
2019-03-05T18:23:44.537Z,65.95
2019-03-05T18:26:16.288Z,65.91
2019-03-05T18:28:47.839Z,66.21
2019-03-05T18:31:18.776Z,66.65
2019-03-05T18:33:49.921Z,67.01
2019-03-05T18:36:20.444Z,66.76
2019-03-05T18:38:52.082Z,67.13
2019-03-05T18:41:23.057Z,67.29
2019-03-05T18:43:53.769Z,67.48
2019-03-05T18:46:24.568Z,67.91
2019-03-05T18:48:55.137Z,67.82
2019-03-05T18:51:25.670Z,67.96
2019-03-05T18:53:59.771Z,68.08
2019-03-05T18:56:30.711Z,68.34
2019-03-05T18:59:01.335Z,68.38
2019-03-05T19:01:33.517Z,68.32
2019-03-05T19:04:03.681Z,68.46
2019-03-05T19:06:34.666Z,68.54
2019-03-05T19:09:05.913Z,68.61
2019-03-05T19:11:36.433Z,68.44
2019-03-05T19:14:07.165Z,68.87
2019-03-05T19:16:37.800Z,68.75
2019-03-05T19:19:09.080Z,68.93
2019-03-05T19:21:39.876Z,68.98
2019-03-05T19:24:10.793Z,69.17
2019-03-05T19:26:41.240Z,69.53
2019-03-05T19:29:11.786Z,69.35
2019-03-05T19:31:43.802Z,69.49
2019-03-05T19:34:14.257Z,69.48
2019-03-05T19:36:45.710Z,69.57
2019-03-05T19:39:16.828Z,69.51
2019-03-05T19:41:55.846Z,69.53
2019-03-05T19:44:19.433Z,69.37
2019-03-05T19:46:51.464Z,69.38
2019-03-05T19:49:22.301Z,69.15
2019-03-05T19:51:53.136Z,68.69
2019-03-05T19:54:23.908Z,68.55
2019-03-05T19:56:54.607Z,68.60
2019-03-05T19:59:25.785Z,68.56
2019-03-05T20:01:56.795Z,68.64
2019-03-05T20:04:28.357Z,68.64
2019-03-05T20:06:58.593Z,68.73
2019-03-05T20:09:30.362Z,68.74
2019-03-05T20:12:03.525Z,68.92
2019-03-05T20:14:33.836Z,69.09
2019-03-05T20:17:05.726Z,68.85
2019-03-05T20:19:36.148Z,68.83
2019-03-05T20:22:07.389Z,68.85
2019-03-05T20:24:38.229Z,68.83
2019-03-05T20:27:15.841Z,68.92
2019-03-05T20:29:42.969Z,68.88
2019-03-05T20:32:13.524Z,68.69
2019-03-05T20:34:46.890Z,68.99
2019-03-05T20:37:17.411Z,68.94
2019-03-05T20:39:48.153Z,69.00
2019-03-05T20:42:19.192Z,68.73
2019-03-05T20:44:49.514Z,68.65
2019-03-05T20:47:20.143Z,68.61
2019-03-05T20:49:50.876Z,68.84
2019-03-05T20:52:23.650Z,68.83
2019-03-05T20:54:54.088Z,68.88
2019-03-05T20:57:24.917Z,69.08
2019-03-05T20:59:55.586Z,69.16
2019-03-05T21:02:26.933Z,69.11
2019-03-05T21:04:58.115Z,68.96
2019-03-05T21:07:30.159Z,69.37
2019-03-05T21:10:02.167Z,69.27
2019-03-05T21:12:32.795Z,69.54
2019-03-05T21:15:05.314Z,69.23
2019-03-05T21:17:35.868Z,69.25
2019-03-05T21:20:09.830Z,69.26
2019-03-05T21:22:42.381Z,69.15
2019-03-05T21:25:15.268Z,68.77
2019-03-05T21:27:48.454Z,68.98
2019-03-05T21:30:27.104Z,69.05
2019-03-05T21:32:59.227Z,69.39
2019-03-05T21:43:29.577Z,69.45
2019-03-05T21:46:18.517Z,69.54
2019-03-05T21:48:50.016Z,69.33
2019-03-05T21:51:21.167Z,69.51
2019-03-05T21:53:52.301Z,69.15
2019-03-05T21:56:23.545Z,69.07
2019-03-05T21:58:56.357Z,69.02
2019-03-05T22:01:27.875Z,69.17
2019-03-05T22:03:59.123Z,69.42
2019-03-05T22:06:29.450Z,69.21
2019-03-05T22:09:00.179Z,69.17
2019-03-05T22:11:31.531Z,68.46
2019-03-05T22:14:03.284Z,68.40
2019-03-05T22:16:33.566Z,68.68
2019-03-05T22:19:04.241Z,68.34
2019-03-05T22:21:35.275Z,68.00
2019-03-05T22:24:06.315Z,68.26
2019-03-05T22:26:37.500Z,67.67
2019-03-05T22:29:08.702Z,67.51
2019-03-05T22:31:39.392Z,67.05
2019-03-05T22:34:10.275Z,67.08
2019-03-05T22:36:40.902Z,67.40
2019-03-05T22:39:13.683Z,67.24
2019-03-05T22:41:44.204Z,66.77
2019-03-05T22:44:14.833Z,66.64
2019-03-05T22:46:48.034Z,66.89
2019-03-05T22:49:18.867Z,66.64
2019-03-05T22:51:52.487Z,66.35
2019-03-05T22:54:24.040Z,66.27
2019-03-05T22:56:55.566Z,66.17
2019-03-05T22:59:26.910Z,66.09
2019-03-05T23:01:58.208Z,66.01
2019-03-05T23:04:32.106Z,66.06
2019-03-05T23:07:02.794Z,65.81
2019-03-05T23:09:33.524Z,66.00
2019-03-05T23:12:04.579Z,66.22
2019-03-05T23:14:36.963Z,66.56
2019-03-05T23:17:08.387Z,66.56
2019-03-05T23:19:39.424Z,66.63
2019-03-05T23:22:11.460Z,66.57
2019-03-05T23:24:43.863Z,66.60
2019-03-05T23:27:15.004Z,66.74
2019-03-05T23:29:46.658Z,66.94
2019-03-05T23:32:19.237Z,66.98
2019-03-05T23:34:49.634Z,66.97
2019-03-05T23:37:22.162Z,66.92
2019-03-05T23:39:52.657Z,66.82
2019-03-05T23:42:24.058Z,66.65
2019-03-05T23:44:54.748Z,66.01
2019-03-05T23:47:27.427Z,65.86
2019-03-05T23:49:58.457Z,65.84
2019-03-05T23:52:42.267Z,65.91
2019-03-05T23:55:13.750Z,66.14
2019-03-05T23:57:44.479Z,66.34
